Airfield :
LOGIN :

Register | Disclaimer

   EN    FR    IT 

 










Legend :    VFR   Marginal VFR   IFR   Intensive IFR   Very Intensive IFR
Visi :
Ceiling :
>= 8 km
>= 3000ft
5 to 8 km
1000 to 3000 ft
1500m to 5 km
500 to 1000 ft
800 to 1500m
200 to 500 ft
< 800m
< 200 ft
Symbols :   Thunderstorms  Fog  Heavy snow  Heavy precipitations  Wind > 20 kt
SIGMETs :     Misc.  Thunderstorms  Icing  Turbulence  Mountain Waves  Volcanic Ashes






- Airport Elevation : 659 ft
- IATA code : LYN


LFLY - Lyon Bron

CURRENT METAR :
  • 291130Z AUTO VRB02KT CAVOK 10/04 Q1015 NOSIG

EXPIRED METARs :
  • 291100Z AUTO VRB03KT CAVOK 09/03 Q1015 NOSIG
  • 291030Z AUTO VRB04KT CAVOK 09/03 Q1015 NOSIG
  • 291000Z AUTO VRB03KT CAVOK 08/03 Q1016 NOSIG
  • 290930Z AUTO VRB02KT CAVOK 07/03 Q1017 NOSIG
  • 290900Z AUTO 00000KT CAVOK 08/03 Q1017 TEMPO 0600 FG VV///
  • 290830Z AUTO VRB01KT 9000 NSC 06/04 Q1017 TEMPO 0600 FG VV///
  • 290800Z AUTO 30002KT 6000 NSC 04/03 Q1017 TEMPO 0600 FG VV///
  • 290730Z AUTO 00000KT 5000 BR NSC 02/02 Q1017 TEMPO 0600 FG VV///
  • 290700Z AUTO VRB01KT 5000 BR NSC 01/01 Q1017 TEMPO 0600 FG VV///

TAF TAF LFLY
Valid from the 29 at 12:00 until the 01 at 12:00 UTC


291100Z 2912/0112 VRB03KT CAVOK
TEMPO 0103/0106 33008KT -RA OVC030
ATIS : +33 4 72 15 87 96



MET'MAP, your aeronautical weather chart ! - Copyright ORBIFLY December 2007 - Disclaimer

ORBIFLY MET'MAP TEAM :

Programming & Development : Alexandra Zaïnal
Original concept : Baudouin d'Aumeries
Technical & hardware support : Manuel Goepfert
Assistance : Marc-Olivier Méhu




SOURCES & CREDITS :

   NOAA